sensor_id;sensor_type;location;lat;lon;timestamp;P1;durP1;ratioP1;P2;durP2;ratioP2
13085;SDS011;6609;49.882;8.664;2023-05-24T00:02:07;12.90;;;4.00;;
13085;SDS011;6609;49.882;8.664;2023-05-24T00:04:37;19.73;;;4.53;;
13085;SDS011;6609;49.882;8.664;2023-05-24T00:07:05;12.80;;;3.30;;
13085;SDS011;6609;49.882;8.664;2023-05-24T00:09:32;17.47;;;4.60;;
13085;SDS011;6609;49.882;8.664;2023-05-24T00:11:59;13.90;;;3.73;;
13085;SDS011;6609;49.882;8.664;2023-05-24T00:14:26;18.77;;;4.93;;
13085;SDS011;6609;49.882;8.664;2023-05-24T00:16:53;13.67;;;3.80;;
13085;SDS011;6609;49.882;8.664;2023-05-24T00:19:21;19.63;;;4.70;;
13085;SDS011;6609;49.882;8.664;2023-05-24T00:21:48;16.63;;;4.80;;
13085;SDS011;6609;49.882;8.664;2023-05-24T00:24:15;14.60;;;4.30;;
13085;SDS011;6609;49.882;8.664;2023-05-24T00:26:43;9.40;;;4.00;;
13085;SDS011;6609;49.882;8.664;2023-05-24T00:29:10;15.87;;;4.97;;
13085;SDS011;6609;49.882;8.664;2023-05-24T00:31:37;12.67;;;3.97;;
13085;SDS011;6609;49.882;8.664;2023-05-24T00:34:04;11.27;;;3.90;;
13085;SDS011;6609;49.882;8.664;2023-05-24T00:36:33;14.87;;;4.40;;
13085;SDS011;6609;49.882;8.664;2023-05-24T00:39:02;13.83;;;3.83;;
13085;SDS011;6609;49.882;8.664;2023-05-24T00:41:29;15.10;;;4.07;;
13085;SDS011;6609;49.882;8.664;2023-05-24T00:43:56;12.70;;;3.50;;
13085;SDS011;6609;49.882;8.664;2023-05-24T00:46:24;11.00;;;4.13;;
13085;SDS011;6609;49.882;8.664;2023-05-24T00:48:52;11.53;;;4.00;;
13085;SDS011;6609;49.882;8.664;2023-05-24T00:51:20;15.77;;;4.43;;
13085;SDS011;6609;49.882;8.664;2023-05-24T00:53:48;14.60;;;4.43;;
13085;SDS011;6609;49.882;8.664;2023-05-24T00:56:15;16.23;;;4.63;;
13085;SDS011;6609;49.882;8.664;2023-05-24T00:58:43;13.00;;;3.80;;
13085;SDS011;6609;49.882;8.664;2023-05-24T01:01:10;13.73;;;4.17;;
13085;SDS011;6609;49.882;8.664;2023-05-24T01:03:39;9.73;;;3.40;;
13085;SDS011;6609;49.882;8.664;2023-05-24T01:06:07;11.53;;;3.60;;
13085;SDS011;6609;49.882;8.664;2023-05-24T01:11:25;15.37;;;4.43;;
13085;SDS011;6609;49.882;8.664;2023-05-24T01:13:58;11.60;;;4.07;;
13085;SDS011;6609;49.882;8.664;2023-05-24T01:16:32;14.63;;;4.10;;
13085;SDS011;6609;49.882;8.664;2023-05-24T01:19:04;12.70;;;3.60;;
13085;SDS011;6609;49.882;8.664;2023-05-24T01:21:43;10.07;;;3.50;;
13085;SDS011;6609;49.882;8.664;2023-05-24T01:24:28;14.00;;;4.70;;
13085;SDS011;6609;49.882;8.664;2023-05-24T01:27:07;18.87;;;4.30;;
13085;SDS011;6609;49.882;8.664;2023-05-24T01:29:34;16.20;;;3.80;;
13085;SDS011;6609;49.882;8.664;2023-05-24T01:32:01;11.90;;;3.57;;
13085;SDS011;6609;49.882;8.664;2023-05-24T01:34:28;18.97;;;4.33;;
13085;SDS011;6609;49.882;8.664;2023-05-24T01:36:55;15.70;;;4.70;;
13085;SDS011;6609;49.882;8.664;2023-05-24T01:39:23;25.00;;;5.07;;
13085;SDS011;6609;49.882;8.664;2023-05-24T01:41:58;14.77;;;3.40;;
13085;SDS011;6609;49.882;8.664;2023-05-24T01:44:33;12.23;;;3.47;;
13085;SDS011;6609;49.882;8.664;2023-05-24T01:47:16;15.03;;;4.20;;
13085;SDS011;6609;49.882;8.664;2023-05-24T01:49:47;14.70;;;4.43;;
13085;SDS011;6609;49.882;8.664;2023-05-24T01:52:18;14.67;;;4.40;;
13085;SDS011;6609;49.882;8.664;2023-05-24T01:54:46;10.73;;;3.13;;
13085;SDS011;6609;49.882;8.664;2023-05-24T01:57:17;14.47;;;4.13;;
13085;SDS011;6609;49.882;8.664;2023-05-24T01:59:46;11.57;;;3.50;;
13085;SDS011;6609;49.882;8.664;2023-05-24T02:02:14;11.47;;;3.50;;
13085;SDS011;6609;49.882;8.664;2023-05-24T02:04:41;15.60;;;4.90;;
13085;SDS011;6609;49.882;8.664;2023-05-24T02:07:08;17.10;;;3.90;;
13085;SDS011;6609;49.882;8.664;2023-05-24T02:09:35;11.87;;;4.20;;
13085;SDS011;6609;49.882;8.664;2023-05-24T02:12:02;22.83;;;5.23;;
13085;SDS011;6609;49.882;8.664;2023-05-24T02:14:29;16.40;;;4.17;;
13085;SDS011;6609;49.882;8.664;2023-05-24T02:16:57;14.10;;;3.33;;
13085;SDS011;6609;49.882;8.664;2023-05-24T02:19:24;13.67;;;4.10;;
13085;SDS011;6609;49.882;8.664;2023-05-24T02:21:51;13.03;;;4.30;;
13085;SDS011;6609;49.882;8.664;2023-05-24T02:24:18;16.10;;;4.03;;
13085;SDS011;6609;49.882;8.664;2023-05-24T02:26:45;9.03;;;3.30;;
13085;SDS011;6609;49.882;8.664;2023-05-24T02:29:12;14.60;;;4.30;;
13085;SDS011;6609;49.882;8.664;2023-05-24T02:31:39;13.50;;;3.73;;
13085;SDS011;6609;49.882;8.664;2023-05-24T02:34:07;14.80;;;5.23;;
13085;SDS011;6609;49.882;8.664;2023-05-24T02:36:34;12.30;;;3.87;;
13085;SDS011;6609;49.882;8.664;2023-05-24T02:39:01;17.67;;;4.53;;
13085;SDS011;6609;49.882;8.664;2023-05-24T02:41:28;20.43;;;4.67;;
13085;SDS011;6609;49.882;8.664;2023-05-24T02:43:55;15.73;;;3.87;;
13085;SDS011;6609;49.882;8.664;2023-05-24T02:46:22;12.07;;;3.77;;
13085;SDS011;6609;49.882;8.664;2023-05-24T02:48:49;10.63;;;4.23;;
13085;SDS011;6609;49.882;8.664;2023-05-24T02:51:17;15.50;;;4.47;;
13085;SDS011;6609;49.882;8.664;2023-05-24T02:53:44;13.23;;;3.87;;
13085;SDS011;6609;49.882;8.664;2023-05-24T02:56:11;15.20;;;4.13;;
13085;SDS011;6609;49.882;8.664;2023-05-24T02:58:41;14.13;;;4.00;;
13085;SDS011;6609;49.882;8.664;2023-05-24T03:01:09;11.90;;;3.03;;
13085;SDS011;6609;49.882;8.664;2023-05-24T03:03:36;13.13;;;4.10;;
13085;SDS011;6609;49.882;8.664;2023-05-24T03:06:03;17.00;;;4.10;;
13085;SDS011;6609;49.882;8.664;2023-05-24T03:08:32;16.10;;;4.10;;
13085;SDS011;6609;49.882;8.664;2023-05-24T03:10:59;13.17;;;3.80;;
13085;SDS011;6609;49.882;8.664;2023-05-24T03:13:26;19.93;;;4.73;;
13085;SDS011;6609;49.882;8.664;2023-05-24T03:15:53;13.53;;;3.80;;
13085;SDS011;6609;49.882;8.664;2023-05-24T03:18:20;12.10;;;3.43;;
13085;SDS011;6609;49.882;8.664;2023-05-24T03:20:47;12.00;;;3.40;;
13085;SDS011;6609;49.882;8.664;2023-05-24T03:23:14;15.47;;;4.47;;
13085;SDS011;6609;49.882;8.664;2023-05-24T03:25:42;14.93;;;3.80;;
13085;SDS011;6609;49.882;8.664;2023-05-24T03:28:09;14.23;;;4.07;;
13085;SDS011;6609;49.882;8.664;2023-05-24T03:30:38;16.10;;;3.80;;
13085;SDS011;6609;49.882;8.664;2023-05-24T03:33:05;13.73;;;3.60;;
13085;SDS011;6609;49.882;8.664;2023-05-24T03:35:32;17.00;;;4.60;;
13085;SDS011;6609;49.882;8.664;2023-05-24T03:37:59;11.87;;;3.33;;
13085;SDS011;6609;49.882;8.664;2023-05-24T03:40:26;15.87;;;3.70;;
13085;SDS011;6609;49.882;8.664;2023-05-24T03:42:57;9.47;;;3.20;;
13085;SDS011;6609;49.882;8.664;2023-05-24T03:45:24;13.00;;;3.10;;
13085;SDS011;6609;49.882;8.664;2023-05-24T03:47:51;20.93;;;4.60;;
13085;SDS011;6609;49.882;8.664;2023-05-24T03:50:18;20.50;;;4.50;;
13085;SDS011;6609;49.882;8.664;2023-05-24T03:52:45;18.90;;;4.47;;
13085;SDS011;6609;49.882;8.664;2023-05-24T03:55:12;13.10;;;4.10;;
13085;SDS011;6609;49.882;8.664;2023-05-24T03:57:39;13.40;;;3.67;;
13085;SDS011;6609;49.882;8.664;2023-05-24T04:00:09;20.07;;;4.40;;
13085;SDS011;6609;49.882;8.664;2023-05-24T04:02:36;11.83;;;3.43;;
13085;SDS011;6609;49.882;8.664;2023-05-24T04:05:03;15.23;;;5.80;;
13085;SDS011;6609;49.882;8.664;2023-05-24T04:07:34;21.17;;;4.33;;
13085;SDS011;6609;49.882;8.664;2023-05-24T04:10:01;16.40;;;3.90;;
13085;SDS011;6609;49.882;8.664;2023-05-24T04:12:28;17.87;;;4.77;;
13085;SDS011;6609;49.882;8.664;2023-05-24T04:14:56;12.33;;;3.37;;
13085;SDS011;6609;49.882;8.664;2023-05-24T04:17:24;24.23;;;4.97;;
13085;SDS011;6609;49.882;8.664;2023-05-24T04:19:51;20.53;;;4.00;;
13085;SDS011;6609;49.882;8.664;2023-05-24T04:22:18;20.97;;;3.90;;
13085;SDS011;6609;49.882;8.664;2023-05-24T04:24:45;17.60;;;3.63;;
13085;SDS011;6609;49.882;8.664;2023-05-24T04:27:13;19.43;;;3.67;;
13085;SDS011;6609;49.882;8.664;2023-05-24T04:29:43;24.47;;;4.67;;
13085;SDS011;6609;49.882;8.664;2023-05-24T04:32:13;20.00;;;3.80;;
13085;SDS011;6609;49.882;8.664;2023-05-24T04:34:41;17.93;;;3.57;;
13085;SDS011;6609;49.882;8.664;2023-05-24T04:37:09;19.87;;;4.27;;
13085;SDS011;6609;49.882;8.664;2023-05-24T04:39:37;16.17;;;4.03;;
13085;SDS011;6609;49.882;8.664;2023-05-24T04:42:05;22.00;;;4.97;;
13085;SDS011;6609;49.882;8.664;2023-05-24T04:44:33;21.27;;;4.20;;
13085;SDS011;6609;49.882;8.664;2023-05-24T04:47:00;18.70;;;4.20;;
13085;SDS011;6609;49.882;8.664;2023-05-24T04:49:27;22.40;;;5.13;;
13085;SDS011;6609;49.882;8.664;2023-05-24T04:51:56;26.37;;;3.87;;
13085;SDS011;6609;49.882;8.664;2023-05-24T04:54:22;21.03;;;4.40;;
13085;SDS011;6609;49.882;8.664;2023-05-24T04:56:49;23.63;;;5.17;;
13085;SDS011;6609;49.882;8.664;2023-05-24T04:59:17;19.27;;;4.43;;
13085;SDS011;6609;49.882;8.664;2023-05-24T05:01:44;22.97;;;4.30;;
13085;SDS011;6609;49.882;8.664;2023-05-24T05:04:11;21.60;;;5.03;;
13085;SDS011;6609;49.882;8.664;2023-05-24T05:06:38;21.90;;;4.00;;
13085;SDS011;6609;49.882;8.664;2023-05-24T05:09:08;18.53;;;4.70;;
13085;SDS011;6609;49.882;8.664;2023-05-24T05:11:37;20.40;;;4.57;;
13085;SDS011;6609;49.882;8.664;2023-05-24T05:14:04;22.67;;;4.90;;
13085;SDS011;6609;49.882;8.664;2023-05-24T05:16:33;16.47;;;3.63;;
13085;SDS011;6609;49.882;8.664;2023-05-24T05:19:00;16.33;;;4.50;;
13085;SDS011;6609;49.882;8.664;2023-05-24T05:21:28;16.47;;;3.33;;
13085;SDS011;6609;49.882;8.664;2023-05-24T05:23:57;16.87;;;3.90;;
13085;SDS011;6609;49.882;8.664;2023-05-24T05:26:25;20.90;;;5.20;;
13085;SDS011;6609;49.882;8.664;2023-05-24T05:28:52;21.37;;;4.17;;
13085;SDS011;6609;49.882;8.664;2023-05-24T05:31:19;23.13;;;4.70;;
13085;SDS011;6609;49.882;8.664;2023-05-24T05:33:46;31.57;;;5.93;;
13085;SDS011;6609;49.882;8.664;2023-05-24T05:36:14;20.60;;;5.43;;
13085;SDS011;6609;49.882;8.664;2023-05-24T05:38:41;17.10;;;3.47;;
13085;SDS011;6609;49.882;8.664;2023-05-24T05:41:08;22.60;;;4.97;;
13085;SDS011;6609;49.882;8.664;2023-05-24T05:43:37;24.40;;;4.80;;
13085;SDS011;6609;49.882;8.664;2023-05-24T05:46:04;19.77;;;4.17;;
13085;SDS011;6609;49.882;8.664;2023-05-24T05:48:31;20.83;;;4.33;;
13085;SDS011;6609;49.882;8.664;2023-05-24T05:50:58;15.47;;;3.60;;
13085;SDS011;6609;49.882;8.664;2023-05-24T05:53:25;20.77;;;5.00;;
13085;SDS011;6609;49.882;8.664;2023-05-24T05:55:52;18.63;;;3.60;;
13085;SDS011;6609;49.882;8.664;2023-05-24T05:58:19;16.73;;;4.00;;
13085;SDS011;6609;49.882;8.664;2023-05-24T06:00:47;16.00;;;3.73;;
13085;SDS011;6609;49.882;8.664;2023-05-24T06:03:13;23.73;;;5.03;;
13085;SDS011;6609;49.882;8.664;2023-05-24T06:05:40;22.07;;;4.33;;
13085;SDS011;6609;49.882;8.664;2023-05-24T06:08:08;27.50;;;4.50;;
13085;SDS011;6609;49.882;8.664;2023-05-24T06:10:35;18.10;;;3.60;;
13085;SDS011;6609;49.882;8.664;2023-05-24T06:13:02;23.77;;;4.50;;
13085;SDS011;6609;49.882;8.664;2023-05-24T06:15:29;27.63;;;5.13;;
13085;SDS011;6609;49.882;8.664;2023-05-24T06:17:58;25.07;;;4.37;;
13085;SDS011;6609;49.882;8.664;2023-05-24T06:20:25;22.23;;;4.30;;
13085;SDS011;6609;49.882;8.664;2023-05-24T06:22:52;22.73;;;4.30;;
13085;SDS011;6609;49.882;8.664;2023-05-24T06:25:19;16.27;;;3.50;;
13085;SDS011;6609;49.882;8.664;2023-05-24T06:27:49;23.73;;;4.40;;
13085;SDS011;6609;49.882;8.664;2023-05-24T06:30:16;25.10;;;4.80;;
13085;SDS011;6609;49.882;8.664;2023-05-24T06:32:43;18.90;;;4.63;;
13085;SDS011;6609;49.882;8.664;2023-05-24T06:35:12;16.83;;;3.93;;
13085;SDS011;6609;49.882;8.664;2023-05-24T06:37:39;20.00;;;4.00;;
13085;SDS011;6609;49.882;8.664;2023-05-24T06:40:06;21.93;;;4.60;;
13085;SDS011;6609;49.882;8.664;2023-05-24T06:42:34;15.70;;;4.00;;
13085;SDS011;6609;49.882;8.664;2023-05-24T06:45:01;27.53;;;5.03;;
13085;SDS011;6609;49.882;8.664;2023-05-24T06:47:28;21.03;;;4.17;;
13085;SDS011;6609;49.882;8.664;2023-05-24T06:49:55;19.63;;;4.30;;
13085;SDS011;6609;49.882;8.664;2023-05-24T06:52:24;21.67;;;4.57;;
13085;SDS011;6609;49.882;8.664;2023-05-24T06:54:51;13.93;;;3.97;;
13085;SDS011;6609;49.882;8.664;2023-05-24T06:57:18;18.43;;;3.90;;
13085;SDS011;6609;49.882;8.664;2023-05-24T06:59:45;26.13;;;6.00;;
13085;SDS011;6609;49.882;8.664;2023-05-24T07:02:12;18.93;;;4.37;;
13085;SDS011;6609;49.882;8.664;2023-05-24T07:04:40;20.93;;;4.53;;
13085;SDS011;6609;49.882;8.664;2023-05-24T07:07:07;28.53;;;4.73;;
13085;SDS011;6609;49.882;8.664;2023-05-24T07:09:39;18.13;;;4.43;;
13085;SDS011;6609;49.882;8.664;2023-05-24T07:12:06;19.93;;;4.60;;
13085;SDS011;6609;49.882;8.664;2023-05-24T07:14:33;19.93;;;4.17;;
13085;SDS011;6609;49.882;8.664;2023-05-24T07:17:00;18.53;;;4.87;;
13085;SDS011;6609;49.882;8.664;2023-05-24T07:19:27;19.90;;;4.03;;
13085;SDS011;6609;49.882;8.664;2023-05-24T07:21:54;20.13;;;5.30;;
13085;SDS011;6609;49.882;8.664;2023-05-24T07:24:21;18.03;;;5.17;;
13085;SDS011;6609;49.882;8.664;2023-05-24T07:26:50;16.73;;;3.90;;
13085;SDS011;6609;49.882;8.664;2023-05-24T07:29:18;19.13;;;4.93;;
13085;SDS011;6609;49.882;8.664;2023-05-24T07:31:45;16.50;;;4.40;;
13085;SDS011;6609;49.882;8.664;2023-05-24T07:34:12;18.47;;;5.00;;
13085;SDS011;6609;49.882;8.664;2023-05-24T07:36:39;19.07;;;4.30;;
13085;SDS011;6609;49.882;8.664;2023-05-24T07:39:06;14.83;;;3.83;;
13085;SDS011;6609;49.882;8.664;2023-05-24T07:41:34;10.23;;;3.63;;
13085;SDS011;6609;49.882;8.664;2023-05-24T07:44:02;12.43;;;4.47;;
13085;SDS011;6609;49.882;8.664;2023-05-24T07:46:29;15.33;;;3.77;;
13085;SDS011;6609;49.882;8.664;2023-05-24T07:48:56;14.33;;;4.13;;
13085;SDS011;6609;49.882;8.664;2023-05-24T07:51:23;14.13;;;3.87;;
13085;SDS011;6609;49.882;8.664;2023-05-24T07:53:50;15.10;;;4.10;;
13085;SDS011;6609;49.882;8.664;2023-05-24T07:56:17;13.70;;;3.70;;
13085;SDS011;6609;49.882;8.664;2023-05-24T07:58:45;11.07;;;3.43;;
13085;SDS011;6609;49.882;8.664;2023-05-24T08:01:14;10.17;;;3.10;;
13085;SDS011;6609;49.882;8.664;2023-05-24T08:03:42;16.97;;;3.53;;
13085;SDS011;6609;49.882;8.664;2023-05-24T08:06:09;16.97;;;3.47;;
13085;SDS011;6609;49.882;8.664;2023-05-24T08:08:36;12.03;;;3.60;;
13085;SDS011;6609;49.882;8.664;2023-05-24T08:11:03;13.70;;;4.37;;
13085;SDS011;6609;49.882;8.664;2023-05-24T08:13:30;15.97;;;5.10;;
13085;SDS011;6609;49.882;8.664;2023-05-24T08:15:57;15.07;;;3.87;;
13085;SDS011;6609;49.882;8.664;2023-05-24T08:18:25;16.53;;;4.30;;
13085;SDS011;6609;49.882;8.664;2023-05-24T08:20:52;18.77;;;4.27;;
13085;SDS011;6609;49.882;8.664;2023-05-24T08:23:19;12.47;;;4.13;;
13085;SDS011;6609;49.882;8.664;2023-05-24T08:25:46;14.13;;;3.67;;
13085;SDS011;6609;49.882;8.664;2023-05-24T08:28:13;11.43;;;3.57;;
13085;SDS011;6609;49.882;8.664;2023-05-24T08:30:40;11.57;;;4.07;;
13085;SDS011;6609;49.882;8.664;2023-05-24T08:33:08;13.87;;;4.33;;
13085;SDS011;6609;49.882;8.664;2023-05-24T08:35:36;12.13;;;4.00;;
13085;SDS011;6609;49.882;8.664;2023-05-24T08:38:03;13.33;;;4.00;;
13085;SDS011;6609;49.882;8.664;2023-05-24T08:40:30;16.17;;;4.73;;
13085;SDS011;6609;49.882;8.664;2023-05-24T08:42:58;15.20;;;4.90;;
13085;SDS011;6609;49.882;8.664;2023-05-24T08:45:28;21.87;;;5.60;;
13085;SDS011;6609;49.882;8.664;2023-05-24T08:47:55;16.13;;;4.83;;
13085;SDS011;6609;49.882;8.664;2023-05-24T08:50:22;11.43;;;3.97;;
13085;SDS011;6609;49.882;8.664;2023-05-24T08:52:51;10.13;;;4.10;;
13085;SDS011;6609;49.882;8.664;2023-05-24T08:55:18;14.60;;;4.33;;
13085;SDS011;6609;49.882;8.664;2023-05-24T08:57:46;18.83;;;4.33;;
13085;SDS011;6609;49.882;8.664;2023-05-24T09:00:14;10.07;;;3.77;;
13085;SDS011;6609;49.882;8.664;2023-05-24T09:02:41;13.83;;;4.53;;
13085;SDS011;6609;49.882;8.664;2023-05-24T09:05:09;17.83;;;3.80;;
13085;SDS011;6609;49.882;8.664;2023-05-24T09:07:36;20.07;;;4.43;;
13085;SDS011;6609;49.882;8.664;2023-05-24T09:10:06;20.97;;;4.47;;
13085;SDS011;6609;49.882;8.664;2023-05-24T09:12:34;14.47;;;5.10;;
13085;SDS011;6609;49.882;8.664;2023-05-24T09:15:03;14.40;;;4.70;;
13085;SDS011;6609;49.882;8.664;2023-05-24T09:17:31;16.97;;;4.63;;
13085;SDS011;6609;49.882;8.664;2023-05-24T09:19:58;12.20;;;4.40;;
13085;SDS011;6609;49.882;8.664;2023-05-24T09:22:25;14.67;;;4.47;;
13085;SDS011;6609;49.882;8.664;2023-05-24T09:24:52;16.63;;;4.27;;
13085;SDS011;6609;49.882;8.664;2023-05-24T09:27:25;16.57;;;4.73;;
13085;SDS011;6609;49.882;8.664;2023-05-24T09:29:51;22.70;;;5.37;;
13085;SDS011;6609;49.882;8.664;2023-05-24T09:32:20;14.17;;;4.37;;
13085;SDS011;6609;49.882;8.664;2023-05-24T09:34:49;13.43;;;4.63;;
13085;SDS011;6609;49.882;8.664;2023-05-24T09:37:17;13.97;;;4.40;;
13085;SDS011;6609;49.882;8.664;2023-05-24T09:39:45;13.93;;;4.00;;
13085;SDS011;6609;49.882;8.664;2023-05-24T09:42:13;13.53;;;3.93;;
13085;SDS011;6609;49.882;8.664;2023-05-24T09:44:42;13.83;;;4.07;;
13085;SDS011;6609;49.882;8.664;2023-05-24T09:47:11;15.07;;;3.97;;
13085;SDS011;6609;49.882;8.664;2023-05-24T09:49:38;11.70;;;3.57;;
13085;SDS011;6609;49.882;8.664;2023-05-24T09:52:05;13.17;;;3.73;;
13085;SDS011;6609;49.882;8.664;2023-05-24T09:54:32;12.87;;;3.93;;
13085;SDS011;6609;49.882;8.664;2023-05-24T09:56:59;9.17;;;3.27;;
13085;SDS011;6609;49.882;8.664;2023-05-24T09:59:29;10.73;;;4.20;;
13085;SDS011;6609;49.882;8.664;2023-05-24T10:02:07;16.17;;;4.10;;
13085;SDS011;6609;49.882;8.664;2023-05-24T10:04:35;12.20;;;4.07;;
13085;SDS011;6609;49.882;8.664;2023-05-24T10:07:03;13.67;;;3.67;;
13085;SDS011;6609;49.882;8.664;2023-05-24T10:09:31;9.37;;;4.00;;
13085;SDS011;6609;49.882;8.664;2023-05-24T10:12:00;9.77;;;3.60;;
13085;SDS011;6609;49.882;8.664;2023-05-24T10:14:28;11.83;;;4.03;;
13085;SDS011;6609;49.882;8.664;2023-05-24T10:16:57;11.40;;;3.83;;
13085;SDS011;6609;49.882;8.664;2023-05-24T10:19:26;13.20;;;3.87;;
13085;SDS011;6609;49.882;8.664;2023-05-24T10:21:52;10.47;;;3.63;;
13085;SDS011;6609;49.882;8.664;2023-05-24T10:24:23;17.83;;;4.00;;
13085;SDS011;6609;49.882;8.664;2023-05-24T10:26:50;14.57;;;4.40;;
13085;SDS011;6609;49.882;8.664;2023-05-24T10:29:19;26.47;;;5.63;;
13085;SDS011;6609;49.882;8.664;2023-05-24T10:31:55;17.53;;;5.47;;
13085;SDS011;6609;49.882;8.664;2023-05-24T10:34:22;14.10;;;4.53;;
13085;SDS011;6609;49.882;8.664;2023-05-24T10:36:50;11.47;;;4.07;;
13085;SDS011;6609;49.882;8.664;2023-05-24T10:39:18;18.47;;;5.10;;
13085;SDS011;6609;49.882;8.664;2023-05-24T10:41:46;17.77;;;4.80;;
13085;SDS011;6609;49.882;8.664;2023-05-24T10:44:16;14.10;;;4.93;;
13085;SDS011;6609;49.882;8.664;2023-05-24T10:47:06;11.70;;;3.80;;
13085;SDS011;6609;49.882;8.664;2023-05-24T10:49:36;10.73;;;4.00;;
13085;SDS011;6609;49.882;8.664;2023-05-24T10:52:08;13.20;;;4.03;;
13085;SDS011;6609;49.882;8.664;2023-05-24T10:54:35;11.77;;;3.23;;
13085;SDS011;6609;49.882;8.664;2023-05-24T10:57:02;12.20;;;4.27;;
13085;SDS011;6609;49.882;8.664;2023-05-24T10:59:31;9.27;;;3.77;;
13085;SDS011;6609;49.882;8.664;2023-05-24T11:02:01;10.00;;;3.87;;
13085;SDS011;6609;49.882;8.664;2023-05-24T11:04:30;11.20;;;4.43;;
13085;SDS011;6609;49.882;8.664;2023-05-24T11:06:59;14.33;;;4.43;;
13085;SDS011;6609;49.882;8.664;2023-05-24T11:09:28;11.73;;;4.20;;
13085;SDS011;6609;49.882;8.664;2023-05-24T11:11:56;9.17;;;3.77;;
13085;SDS011;6609;49.882;8.664;2023-05-24T11:14:29;8.53;;;3.90;;
13085;SDS011;6609;49.882;8.664;2023-05-24T11:16:56;10.93;;;3.27;;
13085;SDS011;6609;49.882;8.664;2023-05-24T11:19:28;9.03;;;3.30;;
13085;SDS011;6609;49.882;8.664;2023-05-24T11:21:57;10.07;;;3.07;;
13085;SDS011;6609;49.882;8.664;2023-05-24T11:24:24;13.27;;;4.47;;
13085;SDS011;6609;49.882;8.664;2023-05-24T11:26:53;9.90;;;3.90;;
13085;SDS011;6609;49.882;8.664;2023-05-24T11:29:21;14.20;;;3.47;;
13085;SDS011;6609;49.882;8.664;2023-05-24T11:31:49;12.17;;;3.97;;
13085;SDS011;6609;49.882;8.664;2023-05-24T11:34:16;10.40;;;3.37;;
13085;SDS011;6609;49.882;8.664;2023-05-24T11:36:43;9.47;;;4.30;;
13085;SDS011;6609;49.882;8.664;2023-05-24T11:39:11;13.20;;;4.10;;
13085;SDS011;6609;49.882;8.664;2023-05-24T11:41:38;12.57;;;4.27;;
13085;SDS011;6609;49.882;8.664;2023-05-24T11:44:07;10.13;;;3.90;;
13085;SDS011;6609;49.882;8.664;2023-05-24T11:46:35;8.17;;;3.07;;
13085;SDS011;6609;49.882;8.664;2023-05-24T11:49:03;10.37;;;3.00;;
13085;SDS011;6609;49.882;8.664;2023-05-24T11:51:31;10.07;;;4.00;;
13085;SDS011;6609;49.882;8.664;2023-05-24T11:53:59;13.37;;;4.03;;
13085;SDS011;6609;49.882;8.664;2023-05-24T11:56:27;11.63;;;3.83;;
13085;SDS011;6609;49.882;8.664;2023-05-24T11:58:56;13.13;;;4.00;;
13085;SDS011;6609;49.882;8.664;2023-05-24T12:01:32;13.33;;;4.33;;
13085;SDS011;6609;49.882;8.664;2023-05-24T12:03:59;9.97;;;3.57;;
13085;SDS011;6609;49.882;8.664;2023-05-24T12:06:32;12.67;;;4.00;;
13085;SDS011;6609;49.882;8.664;2023-05-24T12:09:00;10.10;;;3.30;;
13085;SDS011;6609;49.882;8.664;2023-05-24T12:11:29;9.67;;;3.57;;
13085;SDS011;6609;49.882;8.664;2023-05-24T12:13:56;11.03;;;4.20;;
13085;SDS011;6609;49.882;8.664;2023-05-24T12:16:23;10.60;;;3.87;;
13085;SDS011;6609;49.882;8.664;2023-05-24T12:18:52;12.47;;;3.30;;
13085;SDS011;6609;49.882;8.664;2023-05-24T12:21:19;11.00;;;3.90;;
13085;SDS011;6609;49.882;8.664;2023-05-24T12:23:46;9.93;;;3.00;;
13085;SDS011;6609;49.882;8.664;2023-05-24T12:26:13;11.23;;;4.10;;
13085;SDS011;6609;49.882;8.664;2023-05-24T12:28:44;11.80;;;3.93;;
13085;SDS011;6609;49.882;8.664;2023-05-24T12:31:11;9.93;;;4.00;;
13085;SDS011;6609;49.882;8.664;2023-05-24T12:33:38;10.00;;;4.07;;
13085;SDS011;6609;49.882;8.664;2023-05-24T12:36:06;10.97;;;4.07;;
13085;SDS011;6609;49.882;8.664;2023-05-24T12:38:33;10.27;;;4.40;;
13085;SDS011;6609;49.882;8.664;2023-05-24T12:41:00;10.43;;;3.43;;
13085;SDS011;6609;49.882;8.664;2023-05-24T12:43:27;9.43;;;3.40;;
13085;SDS011;6609;49.882;8.664;2023-05-24T12:45:54;11.50;;;4.30;;
13085;SDS011;6609;49.882;8.664;2023-05-24T12:48:21;12.57;;;4.00;;
13085;SDS011;6609;49.882;8.664;2023-05-24T12:50:48;12.63;;;3.87;;
13085;SDS011;6609;49.882;8.664;2023-05-24T12:53:17;10.70;;;4.03;;
13085;SDS011;6609;49.882;8.664;2023-05-24T12:55:48;10.00;;;4.07;;
13085;SDS011;6609;49.882;8.664;2023-05-24T12:58:15;9.63;;;3.57;;
13085;SDS011;6609;49.882;8.664;2023-05-24T13:00:43;8.20;;;3.40;;
13085;SDS011;6609;49.882;8.664;2023-05-24T13:03:14;10.07;;;3.90;;
13085;SDS011;6609;49.882;8.664;2023-05-24T13:05:41;8.00;;;3.30;;
13085;SDS011;6609;49.882;8.664;2023-05-24T13:08:08;12.23;;;4.60;;
13085;SDS011;6609;49.882;8.664;2023-05-24T13:10:36;9.50;;;4.00;;
13085;SDS011;6609;49.882;8.664;2023-05-24T13:13:03;9.73;;;4.07;;
13085;SDS011;6609;49.882;8.664;2023-05-24T13:15:30;10.07;;;4.20;;
13085;SDS011;6609;49.882;8.664;2023-05-24T13:17:57;10.37;;;4.00;;
13085;SDS011;6609;49.882;8.664;2023-05-24T13:20:24;11.07;;;4.17;;
13085;SDS011;6609;49.882;8.664;2023-05-24T13:22:51;9.50;;;3.27;;
13085;SDS011;6609;49.882;8.664;2023-05-24T13:25:18;11.27;;;5.10;;
13085;SDS011;6609;49.882;8.664;2023-05-24T13:27:47;11.47;;;4.00;;
13085;SDS011;6609;49.882;8.664;2023-05-24T13:30:14;12.33;;;4.00;;
13085;SDS011;6609;49.882;8.664;2023-05-24T13:32:42;10.47;;;4.23;;
13085;SDS011;6609;49.882;8.664;2023-05-24T13:35:10;16.10;;;4.63;;
13085;SDS011;6609;49.882;8.664;2023-05-24T13:37:36;10.40;;;3.67;;
13085;SDS011;6609;49.882;8.664;2023-05-24T13:40:04;11.40;;;3.90;;
13085;SDS011;6609;49.882;8.664;2023-05-24T13:42:31;8.77;;;3.97;;
13085;SDS011;6609;49.882;8.664;2023-05-24T13:44:59;14.57;;;4.27;;
13085;SDS011;6609;49.882;8.664;2023-05-24T13:47:27;11.57;;;3.63;;
13085;SDS011;6609;49.882;8.664;2023-05-24T13:49:54;9.03;;;3.47;;
13085;SDS011;6609;49.882;8.664;2023-05-24T13:52:21;8.57;;;4.27;;
13085;SDS011;6609;49.882;8.664;2023-05-24T13:54:48;9.27;;;3.40;;
13085;SDS011;6609;49.882;8.664;2023-05-24T13:57:16;10.83;;;3.70;;
13085;SDS011;6609;49.882;8.664;2023-05-24T13:59:43;8.10;;;3.60;;
13085;SDS011;6609;49.882;8.664;2023-05-24T14:02:11;11.80;;;4.17;;
13085;SDS011;6609;49.882;8.664;2023-05-24T14:04:38;11.23;;;4.47;;
13085;SDS011;6609;49.882;8.664;2023-05-24T14:07:05;9.37;;;3.63;;
13085;SDS011;6609;49.882;8.664;2023-05-24T14:09:33;10.43;;;3.60;;
13085;SDS011;6609;49.882;8.664;2023-05-24T14:12:00;8.77;;;4.07;;
13085;SDS011;6609;49.882;8.664;2023-05-24T14:14:28;16.37;;;4.20;;
13085;SDS011;6609;49.882;8.664;2023-05-24T14:16:55;9.60;;;3.80;;
13085;SDS011;6609;49.882;8.664;2023-05-24T14:19:23;10.73;;;4.20;;
13085;SDS011;6609;49.882;8.664;2023-05-24T14:21:50;11.13;;;3.93;;
13085;SDS011;6609;49.882;8.664;2023-05-24T14:24:18;10.83;;;3.90;;
13085;SDS011;6609;49.882;8.664;2023-05-24T14:26:45;10.30;;;3.57;;
13085;SDS011;6609;49.882;8.664;2023-05-24T14:29:12;12.87;;;4.50;;
13085;SDS011;6609;49.882;8.664;2023-05-24T14:31:39;7.83;;;3.33;;
13085;SDS011;6609;49.882;8.664;2023-05-24T14:34:07;11.63;;;4.13;;
13085;SDS011;6609;49.882;8.664;2023-05-24T14:36:36;14.70;;;4.40;;
13085;SDS011;6609;49.882;8.664;2023-05-24T14:39:04;12.27;;;3.73;;
13085;SDS011;6609;49.882;8.664;2023-05-24T14:41:31;14.47;;;3.70;;
13085;SDS011;6609;49.882;8.664;2023-05-24T14:43:58;12.07;;;3.97;;
13085;SDS011;6609;49.882;8.664;2023-05-24T14:46:25;12.67;;;4.17;;
13085;SDS011;6609;49.882;8.664;2023-05-24T14:48:52;12.33;;;3.73;;
13085;SDS011;6609;49.882;8.664;2023-05-24T14:51:19;9.97;;;3.70;;
13085;SDS011;6609;49.882;8.664;2023-05-24T14:53:48;9.47;;;3.60;;
13085;SDS011;6609;49.882;8.664;2023-05-24T14:56:15;10.53;;;3.77;;